sensor_id;sensor_type;location;lat;lon;timestamp;P1;durP1;ratioP1;P2;durP2;ratioP2
77822;SDS011;67013;49.730;17.292;2023-03-03T00:00:10;19.50;;;15.30;;
77822;SDS011;67013;49.730;17.292;2023-03-03T00:02:40;24.30;;;16.40;;
77822;SDS011;67013;49.730;17.292;2023-03-03T00:05:10;22.30;;;15.10;;
77822;SDS011;67013;49.730;17.292;2023-03-03T00:07:42;25.70;;;17.00;;
77822;SDS011;67013;49.730;17.292;2023-03-03T00:10:13;25.70;;;16.20;;
77822;SDS011;67013;49.730;17.292;2023-03-03T00:12:46;18.30;;;12.70;;
77822;SDS011;67013;49.730;17.292;2023-03-03T00:15:18;23.40;;;16.80;;
77822;SDS011;67013;49.730;17.292;2023-03-03T00:17:49;25.10;;;17.40;;
77822;SDS011;67013;49.730;17.292;2023-03-03T00:20:27;21.80;;;16.70;;
77822;SDS011;67013;49.730;17.292;2023-03-03T00:23:06;22.30;;;15.90;;
77822;SDS011;67013;49.730;17.292;2023-03-03T00:25:50;22.80;;;15.50;;
77822;SDS011;67013;49.730;17.292;2023-03-03T00:28:25;18.60;;;14.00;;
77822;SDS011;67013;49.730;17.292;2023-03-03T00:30:57;27.80;;;18.90;;
77822;SDS011;67013;49.730;17.292;2023-03-03T00:36:21;22.90;;;16.30;;
77822;SDS011;67013;49.730;17.292;2023-03-03T00:39:12;24.10;;;17.40;;
77822;SDS011;67013;49.730;17.292;2023-03-03T00:41:49;25.30;;;17.90;;
77822;SDS011;67013;49.730;17.292;2023-03-03T00:47:18;24.80;;;16.40;;
77822;SDS011;67013;49.730;17.292;2023-03-03T00:49:53;27.20;;;18.20;;
77822;SDS011;67013;49.730;17.292;2023-03-03T00:52:27;23.50;;;16.60;;
77822;SDS011;67013;49.730;17.292;2023-03-03T00:54:56;27.10;;;16.60;;
77822;SDS011;67013;49.730;17.292;2023-03-03T00:57:26;19.90;;;14.70;;
77822;SDS011;67013;49.730;17.292;2023-03-03T00:59:56;21.10;;;15.00;;
77822;SDS011;67013;49.730;17.292;2023-03-03T01:02:25;19.40;;;13.90;;
77822;SDS011;67013;49.730;17.292;2023-03-03T01:04:56;21.90;;;14.50;;
77822;SDS011;67013;49.730;17.292;2023-03-03T01:07:25;21.40;;;14.60;;
77822;SDS011;67013;49.730;17.292;2023-03-03T01:09:55;22.50;;;14.90;;
77822;SDS011;67013;49.730;17.292;2023-03-03T01:12:25;23.30;;;16.50;;
77822;SDS011;67013;49.730;17.292;2023-03-03T01:14:54;22.40;;;15.10;;
77822;SDS011;67013;49.730;17.292;2023-03-03T01:17:24;20.10;;;14.00;;
77822;SDS011;67013;49.730;17.292;2023-03-03T01:19:53;23.50;;;14.80;;
77822;SDS011;67013;49.730;17.292;2023-03-03T01:22:23;22.00;;;14.90;;
77822;SDS011;67013;49.730;17.292;2023-03-03T01:24:52;22.40;;;15.20;;
77822;SDS011;67013;49.730;17.292;2023-03-03T01:27:21;22.30;;;15.60;;
77822;SDS011;67013;49.730;17.292;2023-03-03T01:29:51;20.80;;;15.80;;
77822;SDS011;67013;49.730;17.292;2023-03-03T01:32:22;25.40;;;15.60;;
77822;SDS011;67013;49.730;17.292;2023-03-03T01:34:51;31.80;;;20.60;;
77822;SDS011;67013;49.730;17.292;2023-03-03T01:37:21;25.20;;;18.10;;
77822;SDS011;67013;49.730;17.292;2023-03-03T01:39:51;27.30;;;18.50;;
77822;SDS011;67013;49.730;17.292;2023-03-03T01:42:21;23.70;;;16.90;;
77822;SDS011;67013;49.730;17.292;2023-03-03T01:47:54;24.30;;;15.90;;
77822;SDS011;67013;49.730;17.292;2023-03-03T01:50:39;24.00;;;15.60;;
77822;SDS011;67013;49.730;17.292;2023-03-03T01:53:14;24.60;;;14.70;;
77822;SDS011;67013;49.730;17.292;2023-03-03T01:55:45;22.60;;;15.10;;
77822;SDS011;67013;49.730;17.292;2023-03-03T01:58:19;20.60;;;14.00;;
77822;SDS011;67013;49.730;17.292;2023-03-03T02:00:52;20.70;;;14.70;;
77822;SDS011;67013;49.730;17.292;2023-03-03T02:03:26;20.70;;;14.80;;
77822;SDS011;67013;49.730;17.292;2023-03-03T02:05:56;20.50;;;14.10;;
77822;SDS011;67013;49.730;17.292;2023-03-03T02:08:29;22.70;;;15.20;;
77822;SDS011;67013;49.730;17.292;2023-03-03T02:11:03;19.90;;;14.00;;
77822;SDS011;67013;49.730;17.292;2023-03-03T02:13:35;22.60;;;14.60;;
77822;SDS011;67013;49.730;17.292;2023-03-03T02:16:05;21.60;;;14.70;;
77822;SDS011;67013;49.730;17.292;2023-03-03T02:18:35;21.30;;;14.50;;
77822;SDS011;67013;49.730;17.292;2023-03-03T02:21:06;20.40;;;13.40;;
77822;SDS011;67013;49.730;17.292;2023-03-03T02:23:42;20.00;;;13.60;;
77822;SDS011;67013;49.730;17.292;2023-03-03T02:26:18;21.60;;;15.20;;
77822;SDS011;67013;49.730;17.292;2023-03-03T02:28:50;20.50;;;14.40;;
77822;SDS011;67013;49.730;17.292;2023-03-03T02:31:21;32.30;;;21.00;;
77822;SDS011;67013;49.730;17.292;2023-03-03T02:36:21;23.80;;;16.70;;
77822;SDS011;67013;49.730;17.292;2023-03-03T02:38:54;23.10;;;16.80;;
77822;SDS011;67013;49.730;17.292;2023-03-03T02:41:31;24.50;;;16.10;;
77822;SDS011;67013;49.730;17.292;2023-03-03T02:44:04;24.70;;;17.60;;
77822;SDS011;67013;49.730;17.292;2023-03-03T02:46:35;27.80;;;18.60;;
77822;SDS011;67013;49.730;17.292;2023-03-03T02:49:07;25.00;;;17.40;;
77822;SDS011;67013;49.730;17.292;2023-03-03T02:51:38;24.70;;;16.00;;
77822;SDS011;67013;49.730;17.292;2023-03-03T02:54:08;25.00;;;15.40;;
77822;SDS011;67013;49.730;17.292;2023-03-03T02:56:39;22.00;;;14.20;;
77822;SDS011;67013;49.730;17.292;2023-03-03T02:59:09;23.50;;;14.90;;
77822;SDS011;67013;49.730;17.292;2023-03-03T03:01:39;21.70;;;13.90;;
77822;SDS011;67013;49.730;17.292;2023-03-03T03:04:10;19.40;;;14.00;;
77822;SDS011;67013;49.730;17.292;2023-03-03T03:06:41;17.80;;;12.70;;
77822;SDS011;67013;49.730;17.292;2023-03-03T03:09:11;19.00;;;14.10;;
77822;SDS011;67013;49.730;17.292;2023-03-03T03:11:41;20.20;;;12.90;;
77822;SDS011;67013;49.730;17.292;2023-03-03T03:14:11;22.30;;;14.10;;
77822;SDS011;67013;49.730;17.292;2023-03-03T03:16:42;23.10;;;15.00;;
77822;SDS011;67013;49.730;17.292;2023-03-03T03:19:11;22.40;;;14.60;;
77822;SDS011;67013;49.730;17.292;2023-03-03T03:21:41;23.30;;;15.50;;
77822;SDS011;67013;49.730;17.292;2023-03-03T03:24:11;22.50;;;14.00;;
77822;SDS011;67013;49.730;17.292;2023-03-03T03:26:40;21.60;;;14.50;;
77822;SDS011;67013;49.730;17.292;2023-03-03T03:29:09;21.10;;;13.60;;
77822;SDS011;67013;49.730;17.292;2023-03-03T03:31:39;25.70;;;16.90;;
77822;SDS011;67013;49.730;17.292;2023-03-03T03:34:09;29.30;;;17.80;;
77822;SDS011;67013;49.730;17.292;2023-03-03T03:36:38;23.40;;;15.20;;
77822;SDS011;67013;49.730;17.292;2023-03-03T03:39:08;23.30;;;15.60;;
77822;SDS011;67013;49.730;17.292;2023-03-03T03:41:37;20.20;;;14.20;;
77822;SDS011;67013;49.730;17.292;2023-03-03T03:44:07;19.70;;;13.20;;
77822;SDS011;67013;49.730;17.292;2023-03-03T03:46:36;21.60;;;15.80;;
77822;SDS011;67013;49.730;17.292;2023-03-03T03:49:06;22.20;;;14.90;;
77822;SDS011;67013;49.730;17.292;2023-03-03T03:51:35;21.70;;;14.00;;
77822;SDS011;67013;49.730;17.292;2023-03-03T03:54:06;16.30;;;11.80;;
77822;SDS011;67013;49.730;17.292;2023-03-03T03:56:36;18.60;;;12.10;;
77822;SDS011;67013;49.730;17.292;2023-03-03T03:59:06;18.30;;;11.70;;
77822;SDS011;67013;49.730;17.292;2023-03-03T04:01:35;16.90;;;11.40;;
77822;SDS011;67013;49.730;17.292;2023-03-03T04:04:05;17.60;;;10.70;;
77822;SDS011;67013;49.730;17.292;2023-03-03T04:06:35;19.00;;;13.40;;
77822;SDS011;67013;49.730;17.292;2023-03-03T04:09:04;18.50;;;12.70;;
77822;SDS011;67013;49.730;17.292;2023-03-03T04:11:34;20.20;;;13.50;;
77822;SDS011;67013;49.730;17.292;2023-03-03T04:14:03;15.20;;;10.50;;
77822;SDS011;67013;49.730;17.292;2023-03-03T04:16:33;18.00;;;11.00;;
77822;SDS011;67013;49.730;17.292;2023-03-03T04:19:02;20.40;;;13.70;;
77822;SDS011;67013;49.730;17.292;2023-03-03T04:21:32;15.40;;;10.50;;
77822;SDS011;67013;49.730;17.292;2023-03-03T04:24:01;22.80;;;14.50;;
77822;SDS011;67013;49.730;17.292;2023-03-03T04:26:31;23.20;;;14.60;;
77822;SDS011;67013;49.730;17.292;2023-03-03T04:29:00;18.40;;;13.00;;
77822;SDS011;67013;49.730;17.292;2023-03-03T04:31:30;18.60;;;13.00;;
77822;SDS011;67013;49.730;17.292;2023-03-03T04:34:00;18.30;;;13.70;;
77822;SDS011;67013;49.730;17.292;2023-03-03T04:36:29;22.70;;;14.40;;
77822;SDS011;67013;49.730;17.292;2023-03-03T04:38:59;20.40;;;13.90;;
77822;SDS011;67013;49.730;17.292;2023-03-03T04:41:28;20.60;;;13.50;;
77822;SDS011;67013;49.730;17.292;2023-03-03T04:43:58;19.20;;;12.00;;
77822;SDS011;67013;49.730;17.292;2023-03-03T04:46:27;18.50;;;12.50;;
77822;SDS011;67013;49.730;17.292;2023-03-03T04:48:57;20.40;;;12.90;;
77822;SDS011;67013;49.730;17.292;2023-03-03T04:51:26;18.80;;;12.90;;
77822;SDS011;67013;49.730;17.292;2023-03-03T04:53:55;19.50;;;14.30;;
77822;SDS011;67013;49.730;17.292;2023-03-03T04:56:25;21.70;;;14.10;;
77822;SDS011;67013;49.730;17.292;2023-03-03T04:58:56;19.00;;;13.40;;
77822;SDS011;67013;49.730;17.292;2023-03-03T05:01:26;19.60;;;13.60;;
77822;SDS011;67013;49.730;17.292;2023-03-03T05:03:55;17.70;;;13.20;;
77822;SDS011;67013;49.730;17.292;2023-03-03T05:06:25;21.80;;;14.50;;
77822;SDS011;67013;49.730;17.292;2023-03-03T05:08:54;22.50;;;16.90;;
77822;SDS011;67013;49.730;17.292;2023-03-03T05:11:24;22.00;;;15.70;;
77822;SDS011;67013;49.730;17.292;2023-03-03T05:13:53;20.30;;;13.80;;
77822;SDS011;67013;49.730;17.292;2023-03-03T05:16:23;21.60;;;14.30;;
77822;SDS011;67013;49.730;17.292;2023-03-03T05:18:52;28.90;;;18.60;;
77822;SDS011;67013;49.730;17.292;2023-03-03T05:21:22;30.20;;;18.10;;
77822;SDS011;67013;49.730;17.292;2023-03-03T05:23:51;20.70;;;15.60;;
77822;SDS011;67013;49.730;17.292;2023-03-03T05:26:20;19.60;;;12.90;;
77822;SDS011;67013;49.730;17.292;2023-03-03T05:28:50;24.20;;;15.90;;
77822;SDS011;67013;49.730;17.292;2023-03-03T05:31:20;20.20;;;13.50;;
77822;SDS011;67013;49.730;17.292;2023-03-03T05:33:49;21.10;;;13.30;;
77822;SDS011;67013;49.730;17.292;2023-03-03T05:36:19;18.40;;;12.40;;
77822;SDS011;67013;49.730;17.292;2023-03-03T05:38:48;19.30;;;13.30;;
77822;SDS011;67013;49.730;17.292;2023-03-03T05:41:18;19.60;;;11.60;;
77822;SDS011;67013;49.730;17.292;2023-03-03T05:43:47;15.60;;;11.10;;
77822;SDS011;67013;49.730;17.292;2023-03-03T05:46:17;18.00;;;11.70;;
77822;SDS011;67013;49.730;17.292;2023-03-03T05:48:46;16.20;;;10.60;;
77822;SDS011;67013;49.730;17.292;2023-03-03T05:51:16;18.90;;;12.20;;
77822;SDS011;67013;49.730;17.292;2023-03-03T05:53:45;19.90;;;12.00;;
77822;SDS011;67013;49.730;17.292;2023-03-03T05:56:15;19.50;;;12.50;;
77822;SDS011;67013;49.730;17.292;2023-03-03T05:58:44;18.60;;;13.80;;
77822;SDS011;67013;49.730;17.292;2023-03-03T06:01:13;21.50;;;14.90;;
77822;SDS011;67013;49.730;17.292;2023-03-03T06:03:44;16.10;;;13.30;;
77822;SDS011;67013;49.730;17.292;2023-03-03T06:06:13;20.60;;;13.70;;
77822;SDS011;67013;49.730;17.292;2023-03-03T06:08:44;22.10;;;13.80;;
77822;SDS011;67013;49.730;17.292;2023-03-03T06:11:14;24.70;;;17.00;;
77822;SDS011;67013;49.730;17.292;2023-03-03T06:13:44;25.70;;;18.30;;
77822;SDS011;67013;49.730;17.292;2023-03-03T06:16:14;29.30;;;20.00;;
77822;SDS011;67013;49.730;17.292;2023-03-03T06:18:43;29.70;;;18.90;;
77822;SDS011;67013;49.730;17.292;2023-03-03T06:21:13;31.60;;;20.20;;
77822;SDS011;67013;49.730;17.292;2023-03-03T06:23:42;34.70;;;21.20;;
77822;SDS011;67013;49.730;17.292;2023-03-03T06:26:12;30.80;;;19.10;;
77822;SDS011;67013;49.730;17.292;2023-03-03T06:28:41;29.30;;;19.10;;
77822;SDS011;67013;49.730;17.292;2023-03-03T06:31:11;27.40;;;19.00;;
77822;SDS011;67013;49.730;17.292;2023-03-03T06:33:40;31.00;;;20.20;;
77822;SDS011;67013;49.730;17.292;2023-03-03T06:36:09;32.20;;;21.70;;
77822;SDS011;67013;49.730;17.292;2023-03-03T06:38:39;32.60;;;22.50;;
77822;SDS011;67013;49.730;17.292;2023-03-03T06:41:09;27.20;;;20.60;;
77822;SDS011;67013;49.730;17.292;2023-03-03T06:43:39;23.70;;;18.20;;
77822;SDS011;67013;49.730;17.292;2023-03-03T06:46:08;21.80;;;17.30;;
77822;SDS011;67013;49.730;17.292;2023-03-03T06:48:38;20.60;;;17.20;;
77822;SDS011;67013;49.730;17.292;2023-03-03T06:51:13;17.90;;;15.50;;
77822;SDS011;67013;49.730;17.292;2023-03-03T06:53:50;19.60;;;16.80;;
77822;SDS011;67013;49.730;17.292;2023-03-03T06:56:22;41.20;;;36.40;;
77822;SDS011;67013;49.730;17.292;2023-03-03T06:58:54;28.10;;;24.90;;
77822;SDS011;67013;49.730;17.292;2023-03-03T07:01:25;22.90;;;17.90;;
77822;SDS011;67013;49.730;17.292;2023-03-03T07:04:03;19.00;;;16.30;;
77822;SDS011;67013;49.730;17.292;2023-03-03T07:06:40;16.90;;;14.70;;
77822;SDS011;67013;49.730;17.292;2023-03-03T07:09:12;18.60;;;16.60;;
77822;SDS011;67013;49.730;17.292;2023-03-03T07:11:46;19.20;;;17.10;;
77822;SDS011;67013;49.730;17.292;2023-03-03T07:14:17;20.40;;;17.50;;
77822;SDS011;67013;49.730;17.292;2023-03-03T07:19:22;16.70;;;14.80;;
77822;SDS011;67013;49.730;17.292;2023-03-03T07:21:58;15.90;;;14.30;;
77822;SDS011;67013;49.730;17.292;2023-03-03T07:24:39;17.80;;;15.90;;
77822;SDS011;67013;49.730;17.292;2023-03-03T07:27:11;16.80;;;15.00;;
77822;SDS011;67013;49.730;17.292;2023-03-03T07:29:46;17.90;;;16.10;;
77822;SDS011;67013;49.730;17.292;2023-03-03T07:32:20;18.10;;;16.30;;
77822;SDS011;67013;49.730;17.292;2023-03-03T07:34:52;18.60;;;16.80;;
77822;SDS011;67013;49.730;17.292;2023-03-03T07:37:26;18.70;;;16.80;;
77822;SDS011;67013;49.730;17.292;2023-03-03T07:40:01;18.20;;;16.40;;
77822;SDS011;67013;49.730;17.292;2023-03-03T07:42:51;18.30;;;16.60;;
77822;SDS011;67013;49.730;17.292;2023-03-03T07:45:23;19.70;;;17.80;;
77822;SDS011;67013;49.730;17.292;2023-03-03T07:47:58;17.30;;;15.60;;
77822;SDS011;67013;49.730;17.292;2023-03-03T07:50:35;24.00;;;21.50;;
77822;SDS011;67013;49.730;17.292;2023-03-03T07:53:07;26.40;;;22.00;;
77822;SDS011;67013;49.730;17.292;2023-03-03T07:55:41;19.90;;;18.00;;
77822;SDS011;67013;49.730;17.292;2023-03-03T07:58:16;21.70;;;19.60;;
77822;SDS011;67013;49.730;17.292;2023-03-03T08:03:52;26.90;;;24.30;;
77822;SDS011;67013;49.730;17.292;2023-03-03T08:06:37;24.00;;;20.10;;
77822;SDS011;67013;49.730;17.292;2023-03-03T08:09:26;19.80;;;17.80;;
77822;SDS011;67013;49.730;17.292;2023-03-03T08:12:14;19.30;;;17.50;;
77822;SDS011;67013;49.730;17.292;2023-03-03T08:14:51;17.80;;;16.00;;
77822;SDS011;67013;49.730;17.292;2023-03-03T08:17:24;16.80;;;15.20;;
77822;SDS011;67013;49.730;17.292;2023-03-03T08:20:02;19.10;;;17.20;;
77822;SDS011;67013;49.730;17.292;2023-03-03T08:22:50;18.00;;;16.20;;
77822;SDS011;67013;49.730;17.292;2023-03-03T08:25:20;19.70;;;17.80;;
77822;SDS011;67013;49.730;17.292;2023-03-03T08:27:49;20.60;;;18.50;;
77822;SDS011;67013;49.730;17.292;2023-03-03T08:30:19;19.30;;;17.50;;
77822;SDS011;67013;49.730;17.292;2023-03-03T08:32:48;18.40;;;16.60;;
77822;SDS011;67013;49.730;17.292;2023-03-03T08:35:18;18.00;;;16.30;;
77822;SDS011;67013;49.730;17.292;2023-03-03T08:37:47;19.60;;;17.60;;
77822;SDS011;67013;49.730;17.292;2023-03-03T08:40:17;17.40;;;15.70;;
77822;SDS011;67013;49.730;17.292;2023-03-03T08:42:47;18.10;;;16.40;;
77822;SDS011;67013;49.730;17.292;2023-03-03T08:45:16;18.10;;;16.30;;
77822;SDS011;67013;49.730;17.292;2023-03-03T08:47:46;16.70;;;15.10;;
77822;SDS011;67013;49.730;17.292;2023-03-03T08:50:16;17.20;;;15.60;;
77822;SDS011;67013;49.730;17.292;2023-03-03T08:52:46;17.50;;;15.90;;
77822;SDS011;67013;49.730;17.292;2023-03-03T08:55:15;15.90;;;14.50;;
77822;SDS011;67013;49.730;17.292;2023-03-03T08:57:45;16.80;;;15.40;;
77822;SDS011;67013;49.730;17.292;2023-03-03T09:00:16;16.70;;;15.20;;
77822;SDS011;67013;49.730;17.292;2023-03-03T09:02:46;14.90;;;13.50;;
77822;SDS011;67013;49.730;17.292;2023-03-03T09:07:45;14.60;;;13.30;;
77822;SDS011;67013;49.730;17.292;2023-03-03T09:10:16;14.30;;;13.00;;
77822;SDS011;67013;49.730;17.292;2023-03-03T09:12:48;16.00;;;14.50;;
77822;SDS011;67013;49.730;17.292;2023-03-03T09:15:20;14.60;;;13.30;;
77822;SDS011;67013;49.730;17.292;2023-03-03T09:17:52;15.40;;;13.90;;
77822;SDS011;67013;49.730;17.292;2023-03-03T09:20:26;14.50;;;13.10;;
77822;SDS011;67013;49.730;17.292;2023-03-03T09:23:16;15.30;;;13.90;;
77822;SDS011;67013;49.730;17.292;2023-03-03T09:25:55;15.50;;;14.10;;
77822;SDS011;67013;49.730;17.292;2023-03-03T09:28:26;15.10;;;13.60;;
77822;SDS011;67013;49.730;17.292;2023-03-03T09:30:58;13.30;;;12.00;;
77822;SDS011;67013;49.730;17.292;2023-03-03T09:33:36;12.80;;;11.50;;
77822;SDS011;67013;49.730;17.292;2023-03-03T09:36:16;13.40;;;12.10;;
77822;SDS011;67013;49.730;17.292;2023-03-03T09:38:49;14.10;;;12.70;;
77822;SDS011;67013;49.730;17.292;2023-03-03T09:46:47;17.10;;;14.70;;
77822;SDS011;67013;49.730;17.292;2023-03-03T09:49:30;13.90;;;12.40;;
77822;SDS011;67013;49.730;17.292;2023-03-03T09:52:08;13.80;;;12.50;;
77822;SDS011;67013;49.730;17.292;2023-03-03T09:54:50;14.70;;;13.20;;
77822;SDS011;67013;49.730;17.292;2023-03-03T09:57:31;13.60;;;12.40;;
77822;SDS011;67013;49.730;17.292;2023-03-03T10:00:18;14.30;;;12.90;;
77822;SDS011;67013;49.730;17.292;2023-03-03T10:03:00;16.60;;;13.70;;
77822;SDS011;67013;49.730;17.292;2023-03-03T10:05:42;16.30;;;14.60;;
77822;SDS011;67013;49.730;17.292;2023-03-03T10:08:25;16.40;;;14.90;;
77822;SDS011;67013;49.730;17.292;2023-03-03T10:11:07;15.70;;;14.10;;
77822;SDS011;67013;49.730;17.292;2023-03-03T10:14:00;17.80;;;16.10;;
77822;SDS011;67013;49.730;17.292;2023-03-03T10:16:41;18.60;;;16.70;;
77822;SDS011;67013;49.730;17.292;2023-03-03T10:19:25;19.10;;;17.10;;
77822;SDS011;67013;49.730;17.292;2023-03-03T10:22:06;17.20;;;14.80;;
77822;SDS011;67013;49.730;17.292;2023-03-03T10:24:49;17.70;;;15.90;;
77822;SDS011;67013;49.730;17.292;2023-03-03T10:27:35;17.50;;;15.60;;
77822;SDS011;67013;49.730;17.292;2023-03-03T10:30:19;18.10;;;15.80;;
77822;SDS011;67013;49.730;17.292;2023-03-03T10:32:54;20.60;;;18.50;;
77822;SDS011;67013;49.730;17.292;2023-03-03T10:35:36;20.30;;;17.00;;
77822;SDS011;67013;49.730;17.292;2023-03-03T10:38:33;21.20;;;16.80;;
77822;SDS011;67013;49.730;17.292;2023-03-03T10:41:17;21.10;;;17.20;;
77822;SDS011;67013;49.730;17.292;2023-03-03T10:44:15;19.00;;;16.30;;
77822;SDS011;67013;49.730;17.292;2023-03-03T10:49:57;20.00;;;17.80;;
77822;SDS011;67013;49.730;17.292;2023-03-03T10:52:41;17.90;;;15.90;;
77822;SDS011;67013;49.730;17.292;2023-03-03T10:58:15;20.90;;;18.00;;
77822;SDS011;67013;49.730;17.292;2023-03-03T11:00:57;20.60;;;18.00;;
77822;SDS011;67013;49.730;17.292;2023-03-03T11:06:34;23.50;;;18.40;;
77822;SDS011;67013;49.730;17.292;2023-03-03T11:09:13;20.00;;;16.30;;
77822;SDS011;67013;49.730;17.292;2023-03-03T11:11:56;20.90;;;17.80;;
77822;SDS011;67013;49.730;17.292;2023-03-03T11:14:35;20.20;;;16.20;;
77822;SDS011;67013;49.730;17.292;2023-03-03T11:17:14;22.10;;;18.20;;
77822;SDS011;67013;49.730;17.292;2023-03-03T11:19:58;21.60;;;18.00;;
77822;SDS011;67013;49.730;17.292;2023-03-03T11:22:37;22.10;;;17.80;;
77822;SDS011;67013;49.730;17.292;2023-03-03T11:25:17;21.20;;;17.40;;
77822;SDS011;67013;49.730;17.292;2023-03-03T11:27:59;20.50;;;17.40;;
77822;SDS011;67013;49.730;17.292;2023-03-03T11:30:47;22.60;;;18.60;;
77822;SDS011;67013;49.730;17.292;2023-03-03T11:33:28;25.00;;;19.00;;
77822;SDS011;67013;49.730;17.292;2023-03-03T11:36:10;22.10;;;18.80;;
77822;SDS011;67013;49.730;17.292;2023-03-03T11:38:52;25.40;;;19.10;;
77822;SDS011;67013;49.730;17.292;2023-03-03T11:41:32;22.80;;;19.20;;
77822;SDS011;67013;49.730;17.292;2023-03-03T11:44:10;22.10;;;18.30;;
77822;SDS011;67013;49.730;17.292;2023-03-03T11:46:48;22.60;;;18.00;;
77822;SDS011;67013;49.730;17.292;2023-03-03T11:49:21;24.60;;;18.30;;
77822;SDS011;67013;49.730;17.292;2023-03-03T11:51:59;22.80;;;19.10;;
77822;SDS011;67013;49.730;17.292;2023-03-03T11:54:40;22.50;;;16.80;;
77822;SDS011;67013;49.730;17.292;2023-03-03T11:57:17;23.70;;;18.60;;
77822;SDS011;67013;49.730;17.292;2023-03-03T11:59:54;26.90;;;20.50;;
77822;SDS011;67013;49.730;17.292;2023-03-03T12:05:40;24.10;;;17.40;;
77822;SDS011;67013;49.730;17.292;2023-03-03T12:08:23;24.40;;;19.90;;
77822;SDS011;67013;49.730;17.292;2023-03-03T12:11:10;17.10;;;12.70;;
77822;SDS011;67013;49.730;17.292;2023-03-03T12:13:48;32.60;;;23.20;;
77822;SDS011;67013;49.730;17.292;2023-03-03T12:16:27;32.00;;;22.40;;
77822;SDS011;67013;49.730;17.292;2023-03-03T12:19:16;34.60;;;24.70;;
77822;SDS011;67013;49.730;17.292;2023-03-03T12:22:06;32.50;;;22.60;;
77822;SDS011;67013;49.730;17.292;2023-03-03T12:24:50;35.50;;;23.60;;
77822;SDS011;67013;49.730;17.292;2023-03-03T12:27:29;34.80;;;22.80;;
77822;SDS011;67013;49.730;17.292;2023-03-03T12:30:12;31.70;;;21.80;;
77822;SDS011;67013;49.730;17.292;2023-03-03T12:33:00;34.40;;;24.00;;
77822;SDS011;67013;49.730;17.292;2023-03-03T12:35:41;34.40;;;22.90;;
77822;SDS011;67013;49.730;17.292;2023-03-03T12:38:19;33.60;;;21.90;;
77822;SDS011;67013;49.730;17.292;2023-03-03T12:40:58;36.00;;;22.70;;
77822;SDS011;67013;49.730;17.292;2023-03-03T12:43:37;34.80;;;22.20;;
77822;SDS011;67013;49.730;17.292;2023-03-03T12:46:17;28.90;;;17.80;;
77822;SDS011;67013;49.730;17.292;2023-03-03T12:48:52;34.00;;;22.60;;
77822;SDS011;67013;49.730;17.292;2023-03-03T12:51:25;36.10;;;23.40;;
77822;SDS011;67013;49.730;17.292;2023-03-03T12:57:03;33.50;;;21.90;;
77822;SDS011;67013;49.730;17.292;2023-03-03T12:59:42;35.30;;;21.30;;
77822;SDS011;67013;49.730;17.292;2023-03-03T13:02:32;36.70;;;21.80;;
77822;SDS011;67013;49.730;17.292;2023-03-03T13:05:18;20.60;;;12.50;;
77822;SDS011;67013;49.730;17.292;2023-03-03T13:07:53;37.10;;;22.10;;
77822;SDS011;67013;49.730;17.292;2023-03-03T13:10:33;37.50;;;21.20;;
77822;SDS011;67013;49.730;17.292;2023-03-03T13:13:09;31.00;;;17.40;;
77822;SDS011;67013;49.730;17.292;2023-03-03T13:15:43;36.40;;;21.10;;
77822;SDS011;67013;49.730;17.292;2023-03-03T13:18:24;31.30;;;17.40;;
77822;SDS011;67013;49.730;17.292;2023-03-03T13:21:05;40.20;;;23.20;;
77822;SDS011;67013;49.730;17.292;2023-03-03T13:23:42;37.70;;;22.80;;
77822;SDS011;67013;49.730;17.292;2023-03-03T13:26:23;36.20;;;20.50;;
77822;SDS011;67013;49.730;17.292;2023-03-03T13:29:04;40.00;;;22.70;;
77822;SDS011;67013;49.730;17.292;2023-03-03T13:31:43;36.10;;;20.20;;
77822;SDS011;67013;49.730;17.292;2023-03-03T13:34:22;33.00;;;19.10;;
77822;SDS011;67013;49.730;17.292;2023-03-03T13:37:00;36.20;;;20.70;;
77822;SDS011;67013;49.730;17.292;2023-03-03T13:39:36;29.80;;;17.20;;
77822;SDS011;67013;49.730;17.292;2023-03-03T13:42:11;29.90;;;20.00;;
77822;SDS011;67013;49.730;17.292;2023-03-03T13:44:50;35.40;;;20.50;;
77822;SDS011;67013;49.730;17.292;2023-03-03T13:47:22;37.50;;;23.00;;
77822;SDS011;67013;49.730;17.292;2023-03-03T13:50:04;37.90;;;22.00;;
77822;SDS011;67013;49.730;17.292;2023-03-03T13:52:47;33.90;;;19.90;;
77822;SDS011;67013;49.730;17.292;2023-03-03T13:55:26;31.20;;;20.20;;
77822;SDS011;67013;49.730;17.292;2023-03-03T13:58:02;40.50;;;21.90;;
77822;SDS011;67013;49.730;17.292;2023-03-03T14:00:42;33.90;;;19.70;;
77822;SDS011;67013;49.730;17.292;2023-03-03T14:03:33;31.90;;;17.50;;
77822;SDS011;67013;49.730;17.292;2023-03-03T14:06:14;36.60;;;19.00;;
77822;SDS011;67013;49.730;17.292;2023-03-03T14:08:56;31.20;;;17.10;;
77822;SDS011;67013;49.730;17.292;2023-03-03T14:11:34;35.60;;;21.00;;
77822;SDS011;67013;49.730;17.292;2023-03-03T14:14:12;38.70;;;21.30;;
77822;SDS011;67013;49.730;17.292;2023-03-03T14:16:53;35.20;;;19.60;;
77822;SDS011;67013;49.730;17.292;2023-03-03T14:19:26;31.40;;;18.60;;
77822;SDS011;67013;49.730;17.292;2023-03-03T14:22:16;32.00;;;17.60;;
77822;SDS011;67013;49.730;17.292;2023-03-03T14:25:04;34.00;;;19.80;;
77822;SDS011;67013;49.730;17.292;2023-03-03T14:27:36;34.30;;;20.60;;
77822;SDS011;67013;49.730;17.292;2023-03-03T14:33:03;33.60;;;19.80;;
77822;SDS011;67013;49.730;17.292;2023-03-03T14:35:47;38.10;;;20.40;;
77822;SDS011;67013;49.730;17.292;2023-03-03T14:38:36;35.10;;;20.60;;
77822;SDS011;67013;49.730;17.292;2023-03-03T14:41:18;35.40;;;19.30;;
77822;SDS011;67013;49.730;17.292;2023-03-03T14:44:06;34.40;;;20.60;;
77822;SDS011;67013;49.730;17.292;2023-03-03T14:49:55;32.80;;;17.30;;
77822;SDS011;67013;49.730;17.292;2023-03-03T14:52:26;32.20;;;19.90;;
77822;SDS011;67013;49.730;17.292;2023-03-03T14:54:57;30.40;;;17.80;;
77822;SDS011;67013;49.730;17.292;2023-03-03T14:57:40;29.70;;;16.30;;
77822;SDS011;67013;49.730;17.292;2023-03-03T15:03:00;31.10;;;18.80;;
77822;SDS011;67013;49.730;17.292;2023-03-03T15:05:48;29.80;;;17.30;;
77822;SDS011;67013;49.730;17.292;2023-03-03T15:08:23;22.50;;;12.10;;
77822;SDS011;67013;49.730;17.292;2023-03-03T15:10:59;29.10;;;16.70;;
77822;SDS011;67013;49.730;17.292;2023-03-03T15:13:44;32.80;;;16.40;;
77822;SDS011;67013;49.730;17.292;2023-03-03T15:16:17;19.50;;;10.00;;
77822;SDS011;67013;49.730;17.292;2023-03-03T15:21:58;32.30;;;16.80;;
77822;SDS011;67013;49.730;17.292;2023-03-03T15:24:36;32.00;;;17.40;;
77822;SDS011;67013;49.730;17.292;2023-03-03T15:27:11;25.50;;;14.50;;
77822;SDS011;67013;49.730;17.292;2023-03-03T15:29:49;28.50;;;15.10;;
77822;SDS011;67013;49.730;17.292;2023-03-03T15:32:28;29.70;;;16.50;;
77822;SDS011;67013;49.730;17.292;2023-03-03T15:35:09;26.20;;;15.40;;
77822;SDS011;67013;49.730;17.292;2023-03-03T15:37:49;27.50;;;15.00;;
77822;SDS011;67013;49.730;17.292;2023-03-03T15:40:26;25.50;;;14.10;;
77822;SDS011;67013;49.730;17.292;2023-03-03T15:43:10;32.20;;;18.20;;